createdAt,value
2018-12-03T00:00:11.561Z,0
2018-12-03T00:01:10.789Z,0
2018-12-03T00:02:11.319Z,0
2018-12-03T00:03:11.363Z,0
2018-12-03T00:04:11.117Z,0
2018-12-03T00:05:11.424Z,0
2018-12-03T00:06:11.435Z,0
2018-12-03T00:07:11.427Z,0
2018-12-03T00:08:11.739Z,0
2018-12-03T00:09:11.209Z,0
2018-12-03T00:10:11.529Z,0
2018-12-03T00:11:11.761Z,0
2018-12-03T00:12:11.538Z,0
2018-12-03T00:13:11.571Z,0
2018-12-03T00:14:11.586Z,0
2018-12-03T00:15:11.862Z,0
2018-12-03T00:16:11.617Z,0
2018-12-03T00:17:11.648Z,0
2018-12-03T00:18:11.681Z,0
2018-12-03T00:19:11.726Z,0
2018-12-03T00:20:11.972Z,0
2018-12-03T00:21:12.236Z,0
2018-12-03T00:22:11.756Z,0
2018-12-03T00:23:11.548Z,0
2018-12-03T00:24:11.794Z,0
2018-12-03T00:25:11.827Z,0
2018-12-03T00:26:11.598Z,0
2018-12-03T00:27:11.586Z,0
2018-12-03T00:28:12.134Z,0
2018-12-03T00:29:11.895Z,0
2018-12-03T00:30:11.399Z,0
2018-12-03T00:31:12.484Z,0
2018-12-03T00:32:11.716Z,0
2018-12-03T00:33:12.257Z,0
2018-12-03T00:34:12.015Z,0
2018-12-03T00:35:12.545Z,0
2018-12-03T00:36:11.800Z,0
2018-12-03T00:37:11.814Z,0
2018-12-03T00:38:12.673Z,0
2018-12-03T00:39:12.102Z,0
2018-12-03T00:40:12.133Z,0
2018-12-03T00:41:12.410Z,0
2018-12-03T00:42:12.174Z,0
2018-12-03T00:43:12.210Z,0
2018-12-03T00:44:12.478Z,0
2018-12-03T00:45:12.513Z,0
2018-12-03T00:46:11.742Z,0
2018-12-03T00:47:12.276Z,0
2018-12-03T00:48:12.572Z,0
2018-12-03T00:49:12.060Z,0
2018-12-03T00:50:12.406Z,0
2018-12-03T00:51:12.103Z,0
2018-12-03T00:52:12.145Z,0
2018-12-03T00:53:12.412Z,0
2018-12-03T00:54:11.917Z,0
2018-12-03T00:55:12.453Z,0
2018-12-03T00:56:12.514Z,0
2018-12-03T00:57:12.497Z,0
2018-12-03T00:58:12.259Z,0
2018-12-03T00:59:12.276Z,0
2018-12-03T01:00:12.305Z,0
2018-12-03T01:01:12.866Z,0
2018-12-03T01:02:12.353Z,0
2018-12-03T01:03:12.358Z,0
2018-12-03T01:04:12.915Z,0
2018-12-03T01:05:12.660Z,0
2018-12-03T01:06:12.439Z,0
2018-12-03T01:07:12.721Z,0
2018-12-03T01:08:12.747Z,0
2018-12-03T01:09:13.260Z,0
2018-12-03T01:10:12.508Z,0
2018-12-03T01:11:12.535Z,0
2018-12-03T01:12:12.559Z,0
2018-12-03T01:13:13.105Z,0
2018-12-03T01:14:13.463Z,0
2018-12-03T01:15:13.145Z,0
2018-12-03T01:16:12.666Z,0
2018-12-03T01:17:12.657Z,0
2018-12-03T01:18:12.947Z,0
2018-12-03T01:19:12.717Z,0
2018-12-03T01:20:12.486Z,0
2018-12-03T01:21:13.273Z,0
2018-12-03T01:22:13.048Z,0
2018-12-03T01:23:13.071Z,0
2018-12-03T01:24:12.806Z,0
2018-12-03T01:25:12.847Z,0
2018-12-03T01:26:13.112Z,0
2018-12-03T01:27:13.133Z,0
2018-12-03T01:28:12.903Z,0
2018-12-03T01:29:13.703Z,0
2018-12-03T01:30:13.205Z,0
2018-12-03T01:31:13.222Z,0
2018-12-03T01:32:12.989Z,0
2018-12-03T01:33:13.274Z,0
2018-12-03T01:34:13.019Z,0
2018-12-03T01:35:13.316Z,0
2018-12-03T01:36:13.610Z,0
2018-12-03T01:37:13.354Z,0
2018-12-03T01:38:13.436Z,0
2018-12-03T01:39:13.137Z,0
2018-12-03T01:40:13.422Z,0
2018-12-03T01:41:13.447Z,0
2018-12-03T01:42:13.209Z,0
2018-12-03T01:43:13.482Z,0
2018-12-03T01:44:13.259Z,0
2018-12-03T01:45:13.515Z,0
2018-12-03T01:46:13.798Z,0
2018-12-03T01:47:13.578Z,0
2018-12-03T01:48:13.325Z,0
2018-12-03T01:49:13.104Z,0
2018-12-03T01:50:13.419Z,0
2018-12-03T01:51:13.666Z,0
2018-12-03T01:52:13.953Z,0
2018-12-03T01:53:13.709Z,0
2018-12-03T01:54:13.462Z,0
2018-12-03T01:55:13.222Z,0
2018-12-03T01:56:14.028Z,0
2018-12-03T01:57:14.064Z,0
2018-12-03T01:58:13.541Z,0
2018-12-03T01:59:13.316Z,0
2018-12-03T02:00:13.607Z,0
2018-12-03T02:01:13.865Z,0
2018-12-03T02:02:14.404Z,0
2018-12-03T02:03:13.651Z,0
2018-12-03T02:04:13.688Z,0
2018-12-03T02:05:13.429Z,0
2018-12-03T02:06:13.458Z,0
2018-12-03T02:07:13.746Z,0
2018-12-03T02:08:13.797Z,0
2018-12-03T02:09:14.060Z,0
2018-12-03T02:10:14.330Z,0
2018-12-03T02:11:14.071Z,0
2018-12-03T02:12:14.366Z,0
2018-12-03T02:13:14.382Z,0
2018-12-03T02:14:14.168Z,0
2018-12-03T02:15:13.650Z,0
2018-12-03T02:16:14.182Z,0
2018-12-03T02:17:13.942Z,0
2018-12-03T02:18:14.024Z,0
2018-12-03T02:19:14.009Z,0
2018-12-03T02:20:14.263Z,0
2018-12-03T02:21:14.034Z,0
2018-12-03T02:22:14.584Z,0
2018-12-03T02:23:14.343Z,0
2018-12-03T02:24:14.346Z,0
2018-12-03T02:25:14.644Z,0
2018-12-03T02:26:14.149Z,0
2018-12-03T02:27:14.163Z,0
2018-12-03T02:28:14.190Z,0
2018-12-03T02:29:13.937Z,0
2018-12-03T02:30:14.245Z,0
2018-12-03T02:31:14.764Z,0
2018-12-03T02:32:14.799Z,0
2018-12-03T02:33:14.283Z,0
2018-12-03T02:34:14.841Z,0
2018-12-03T02:35:14.103Z,0
2018-12-03T02:36:14.668Z,0
2018-12-03T02:37:14.444Z,0
2018-12-03T02:38:14.667Z,0
2018-12-03T02:39:14.422Z,0
2018-12-03T02:40:14.516Z,0
2018-12-03T02:41:15.229Z,0
2018-12-03T02:42:14.991Z,0
2018-12-03T02:43:15.297Z,0
2018-12-03T02:44:14.814Z,0
2018-12-03T02:45:15.076Z,0
2018-12-03T02:46:14.561Z,0
2018-12-03T02:47:15.109Z,0
2018-12-03T02:48:15.173Z,0
2018-12-03T02:49:14.901Z,0
2018-12-03T02:50:14.908Z,0
2018-12-03T02:51:14.423Z,0
2018-12-03T02:52:15.228Z,0
2018-12-03T02:53:14.725Z,0
2018-12-03T02:54:15.288Z,0
2018-12-03T02:55:15.562Z,0
2018-12-03T02:56:14.777Z,0
2018-12-03T02:57:15.326Z,0
2018-12-03T02:58:15.095Z,0
2018-12-03T02:59:15.117Z,0
2018-12-03T03:00:15.149Z,0
2018-12-03T03:01:14.640Z,0
2018-12-03T03:02:14.925Z,0
2018-12-03T03:03:14.929Z,0
2018-12-03T03:04:14.952Z,0
2018-12-03T03:05:14.731Z,0
2018-12-03T03:06:14.989Z,0
2018-12-03T03:07:15.266Z,0
2018-12-03T03:08:15.126Z,0
2018-12-03T03:09:15.325Z,0
2018-12-03T03:10:15.349Z,0
2018-12-03T03:11:15.360Z,0
2018-12-03T03:12:15.372Z,0
2018-12-03T03:13:15.154Z,0
2018-12-03T03:14:14.898Z,0
2018-12-03T03:15:15.556Z,0
2018-12-03T03:16:15.460Z,0
2018-12-03T03:17:15.479Z,0
2018-12-03T03:18:15.513Z,0
2018-12-03T03:19:15.818Z,0
2018-12-03T03:20:16.068Z,0
2018-12-03T03:21:15.844Z,0
2018-12-03T03:22:15.619Z,0
2018-12-03T03:23:15.618Z,0
2018-12-03T03:24:16.147Z,0
2018-12-03T03:25:15.959Z,0
2018-12-03T03:26:15.441Z,0
2018-12-03T03:27:15.712Z,0
2018-12-03T03:28:15.725Z,0
2018-12-03T03:29:15.741Z,0
2018-12-03T03:30:15.785Z,0
2018-12-03T03:31:15.787Z,0
2018-12-03T03:32:16.090Z,0
2018-12-03T03:33:15.866Z,0
2018-12-03T03:34:15.846Z,0
2018-12-03T03:35:15.879Z,0
2018-12-03T03:36:15.903Z,0
2018-12-03T03:37:16.165Z,0
2018-12-03T03:38:15.668Z,0
2018-12-03T03:39:16.234Z,0
2018-12-03T03:40:15.978Z,0
2018-12-03T03:41:16.006Z,0
2018-12-03T03:42:15.772Z,0
2018-12-03T03:43:15.527Z,0
2018-12-03T03:44:15.791Z,0
2018-12-03T03:45:16.102Z,0
2018-12-03T03:46:15.834Z,0
2018-12-03T03:47:15.868Z,0
2018-12-03T03:48:16.435Z,0
2018-12-03T03:49:15.936Z,0
2018-12-03T03:50:16.190Z,0
2018-12-03T03:51:15.959Z,0
2018-12-03T03:52:15.978Z,0
2018-12-03T03:53:16.771Z,0
2018-12-03T03:54:16.017Z,0
2018-12-03T03:55:16.319Z,0
2018-12-03T03:56:16.053Z,0
2018-12-03T03:57:16.087Z,0
2018-12-03T03:58:16.387Z,0
2018-12-03T03:59:16.624Z,0
2018-12-03T04:00:16.464Z,0
2018-12-03T04:01:16.423Z,0
2018-12-03T04:02:16.698Z,0
2018-12-03T04:03:16.190Z,0
2018-12-03T04:04:15.962Z,0
2018-12-03T04:05:16.263Z,0
2018-12-03T04:06:16.796Z,0
2018-12-03T04:07:16.302Z,0
2018-12-03T04:08:16.045Z,0
2018-12-03T04:09:17.098Z,0
2018-12-03T04:10:16.372Z,0
2018-12-03T04:11:16.387Z,0
2018-12-03T04:12:16.676Z,0
2018-12-03T04:13:16.704Z,0
2018-12-03T04:14:16.716Z,0
2018-12-03T04:15:17.007Z,0
2018-12-03T04:16:16.991Z,0
2018-12-03T04:17:16.753Z,0
2018-12-03T04:18:16.771Z,0
2018-12-03T04:19:16.545Z,0
2018-12-03T04:20:17.112Z,0
2018-12-03T04:21:16.846Z,0
2018-12-03T04:22:16.369Z,0
2018-12-03T04:23:16.886Z,0
2018-12-03T04:24:16.931Z,0
2018-12-03T04:25:16.668Z,0
2018-12-03T04:26:16.690Z,0
2018-12-03T04:27:16.998Z,0
2018-12-03T04:28:17.013Z,0
2018-12-03T04:29:16.502Z,0
2018-12-03T04:30:17.041Z,0
2018-12-03T04:31:17.058Z,0
2018-12-03T04:32:16.822Z,0
2018-12-03T04:33:16.845Z,0
2018-12-03T04:34:16.889Z,0
2018-12-03T04:35:17.416Z,0
2018-12-03T04:36:17.679Z,0
2018-12-03T04:37:16.946Z,0
2018-12-03T04:38:16.963Z,0
2018-12-03T04:39:16.986Z,0
2018-12-03T04:40:16.998Z,0
2018-12-03T04:41:17.268Z,0
2018-12-03T04:42:17.026Z,0
2018-12-03T04:43:17.303Z,0
2018-12-03T04:44:17.596Z,0
2018-12-03T04:45:17.102Z,0
2018-12-03T04:46:17.125Z,0
2018-12-03T04:47:16.877Z,0
2018-12-03T04:48:17.146Z,0
2018-12-03T04:49:16.918Z,0
2018-12-03T04:50:16.942Z,0
2018-12-03T04:51:17.743Z,0
2018-12-03T04:52:17.236Z,0
2018-12-03T04:53:17.258Z,0
2018-12-03T04:54:17.551Z,0
2018-12-03T04:55:17.070Z,0
2018-12-03T04:56:17.835Z,0
2018-12-03T04:57:17.628Z,0
2018-12-03T04:58:18.150Z,0
2018-12-03T04:59:17.664Z,0
2018-12-03T05:00:18.181Z,0
2018-12-03T05:01:17.939Z,0
2018-12-03T05:02:17.461Z,0
2018-12-03T05:03:17.492Z,0
2018-12-03T05:04:17.507Z,0
2018-12-03T05:05:17.767Z,0
2018-12-03T05:06:17.534Z,0
2018-12-03T05:07:17.868Z,0
2018-12-03T05:08:17.570Z,0
2018-12-03T05:09:17.866Z,0
2018-12-03T05:10:18.467Z,0
2018-12-03T05:11:17.905Z,0
2018-12-03T05:12:17.418Z,0
2018-12-03T05:13:17.443Z,0
2018-12-03T05:14:17.725Z,0
2018-12-03T05:15:18.270Z,0
2018-12-03T05:16:18.290Z,0
2018-12-03T05:17:18.328Z,0
2018-12-03T05:18:17.827Z,0
2018-12-03T05:19:18.355Z,0
2018-12-03T05:20:18.115Z,0
2018-12-03T05:21:17.881Z,0
2018-12-03T05:22:17.879Z,0
2018-12-03T05:23:18.171Z,0
2018-12-03T05:24:17.927Z,0
2018-12-03T05:25:23.514Z,0
2018-12-03T05:26:18.481Z,0
2018-12-03T05:27:17.989Z,0
2018-12-03T05:28:18.002Z,0
2018-12-03T05:29:18.574Z,0
2018-12-03T05:30:18.302Z,0
2018-12-03T05:31:18.880Z,0
2018-12-03T05:32:18.086Z,0
2018-12-03T05:33:18.388Z,0
2018-12-03T05:34:18.165Z,0
2018-12-03T05:35:18.178Z,0
2018-12-03T05:36:18.434Z,0
2018-12-03T05:37:18.504Z,0
2018-12-03T05:38:18.480Z,0
2018-12-03T05:39:18.756Z,0
2018-12-03T05:40:18.264Z,0
2018-12-03T05:41:18.282Z,0
2018-12-03T05:42:18.052Z,0
2018-12-03T05:43:18.602Z,0
2018-12-03T05:44:18.351Z,0
2018-12-03T05:45:18.893Z,0
2018-12-03T05:46:18.667Z,0
2018-12-03T05:47:18.144Z,0
2018-12-03T05:48:18.441Z,0
2018-12-03T05:49:18.730Z,0
2018-12-03T05:50:18.997Z,0
2018-12-03T05:51:18.494Z,0
2018-12-03T05:52:19.029Z,0
2018-12-03T05:53:18.297Z,0
2018-12-03T05:54:19.225Z,0
2018-12-03T05:55:18.582Z,0
2018-12-03T05:56:18.880Z,0
2018-12-03T05:57:18.628Z,0
2018-12-03T05:58:18.395Z,0
2018-12-03T05:59:18.667Z,0
2018-12-03T06:00:18.696Z,0
2018-12-03T06:01:18.441Z,0
2018-12-03T06:02:18.737Z,0
2018-12-03T06:03:18.505Z,0
2018-12-03T06:04:19.030Z,0
2018-12-03T06:05:18.787Z,0
2018-12-03T06:06:18.555Z,0
2018-12-03T06:07:18.854Z,0
2018-12-03T06:08:19.115Z,0
2018-12-03T06:09:19.154Z,0
2018-12-03T06:10:19.451Z,0
2018-12-03T06:11:19.449Z,0
2018-12-03T06:12:19.012Z,0
2018-12-03T06:13:19.229Z,0
2018-12-03T06:14:18.985Z,0
2018-12-03T06:15:19.263Z,0
2018-12-03T06:16:19.535Z,0
2018-12-03T06:17:19.316Z,0
2018-12-03T06:18:19.317Z,0
2018-12-03T06:19:19.097Z,0
2018-12-03T06:20:18.863Z,0
2018-12-03T06:21:19.151Z,0
2018-12-03T06:22:18.904Z,0
2018-12-03T06:23:19.168Z,0
2018-12-03T06:24:19.207Z,0
2018-12-03T06:25:19.780Z,0
2018-12-03T06:26:19.246Z,0
2018-12-03T06:27:19.507Z,0
2018-12-03T06:28:19.045Z,0
2018-12-03T06:29:19.331Z,0
2018-12-03T06:30:19.585Z,0
2018-12-03T06:31:19.858Z,0
2018-12-03T06:32:19.664Z,0
2018-12-03T06:33:19.387Z,0
2018-12-03T06:34:19.684Z,0
2018-12-03T06:35:19.685Z,0
2018-12-03T06:36:19.707Z,0
2018-12-03T06:37:19.489Z,0
2018-12-03T06:38:24.333Z,0
2018-12-03T06:39:19.512Z,0
2018-12-03T06:40:20.068Z,0
2018-12-03T06:41:19.842Z,0
2018-12-03T06:42:19.323Z,0
2018-12-03T06:43:19.879Z,0
2018-12-03T06:44:19.615Z,0
2018-12-03T06:45:19.665Z,0
2018-12-03T06:46:20.195Z,0
2018-12-03T06:47:20.197Z,0
2018-12-03T06:48:19.463Z,0
2018-12-03T06:49:20.026Z,0
2018-12-03T06:50:20.015Z,0
2018-12-03T06:51:19.774Z,0
2018-12-03T06:52:19.805Z,0
2018-12-03T06:53:19.824Z,0
2018-12-03T06:54:20.415Z,0
2018-12-03T06:55:20.448Z,0
2018-12-03T06:56:20.143Z,0
2018-12-03T06:57:20.427Z,0
2018-12-03T06:58:19.912Z,0
2018-12-03T06:59:20.495Z,0
2018-12-03T07:00:20.494Z,0
2018-12-03T07:01:20.133Z,0
2018-12-03T07:02:19.761Z,0
2018-12-03T07:03:20.084Z,0
2018-12-03T07:04:20.044Z,0
2018-12-03T07:05:20.331Z,0
2018-12-03T07:06:20.101Z,0
2018-12-03T07:07:20.367Z,0
2018-12-03T07:08:20.395Z,0
2018-12-03T07:09:20.415Z,0
2018-12-03T07:10:20.444Z,0
2018-12-03T07:11:19.949Z,0
2018-12-03T07:12:21.004Z,0
2018-12-03T07:13:20.511Z,0
2018-12-03T07:14:20.267Z,0
2018-12-03T07:15:20.054Z,0
2018-12-03T07:16:20.576Z,0
2018-12-03T07:17:21.998Z,0
2018-12-03T07:18:20.342Z,0
2018-12-03T07:19:20.119Z,0
2018-12-03T07:20:20.925Z,0
2018-12-03T07:21:20.932Z,0
2018-12-03T07:22:20.554Z,0
2018-12-03T07:23:20.757Z,0
2018-12-03T07:24:20.721Z,0
2018-12-03T07:25:20.490Z,0
2018-12-03T07:26:20.517Z,0
2018-12-03T07:27:20.810Z,0
2018-12-03T07:28:20.570Z,0
2018-12-03T07:29:20.609Z,0
2018-12-03T07:30:20.883Z,0
2018-12-03T07:31:20.362Z,0
2018-12-03T07:32:21.228Z,0
2018-12-03T07:33:20.663Z,0
2018-12-03T07:34:20.678Z,0
2018-12-03T07:35:20.974Z,0
2018-12-03T07:36:21.233Z,0
2018-12-03T07:37:20.994Z,0
2018-12-03T07:38:21.028Z,0
2018-12-03T07:39:20.783Z,0
2018-12-03T07:40:21.058Z,0
2018-12-03T07:41:20.568Z,0
2018-12-03T07:42:21.104Z,5
2018-12-03T07:43:20.875Z,5
2018-12-03T07:44:21.160Z,5
2018-12-03T07:45:21.173Z,5
2018-12-03T07:46:21.210Z,5
2018-12-03T07:47:20.689Z,5
2018-12-03T07:48:21.514Z,5
2018-12-03T07:49:21.255Z,5
2018-12-03T07:50:21.544Z,5
2018-12-03T07:51:21.292Z,5
2018-12-03T07:52:21.586Z,5
2018-12-03T07:53:21.339Z,5
2018-12-03T07:54:21.810Z,5
2018-12-03T07:55:21.394Z,5
2018-12-03T07:56:21.677Z,5
2018-12-03T07:57:20.910Z,5
2018-12-03T07:58:20.936Z,10
2018-12-03T07:59:21.737Z,10
2018-12-03T08:00:21.240Z,5
2018-12-03T08:01:21.520Z,5
2018-12-03T08:02:21.014Z,5
2018-12-03T08:03:21.567Z,5
2018-12-03T08:04:21.583Z,5
2018-12-03T08:05:21.882Z,5
2018-12-03T08:06:21.862Z,10
2018-12-03T08:07:21.378Z,10
2018-12-03T08:08:21.673Z,10
2018-12-03T08:09:21.678Z,5
2018-12-03T08:10:21.719Z,5
2018-12-03T08:11:21.722Z,5
2018-12-03T08:12:22.253Z,10
2018-12-03T08:13:21.761Z,5
2018-12-03T08:14:21.526Z,5
2018-12-03T08:15:21.808Z,5
2018-12-03T08:16:21.858Z,5
2018-12-03T08:17:21.595Z,5
2018-12-03T08:18:21.861Z,5
2018-12-03T08:19:21.903Z,5
2018-12-03T08:20:21.926Z,5
2018-12-03T08:21:21.944Z,5
2018-12-03T08:22:22.211Z,10
2018-12-03T08:23:21.470Z,10
2018-12-03T08:24:21.994Z,10
2018-12-03T08:25:22.019Z,10
2018-12-03T08:26:21.837Z,10
2018-12-03T08:27:22.065Z,10
2018-12-03T08:28:21.568Z,10
2018-12-03T08:29:21.865Z,10
2018-12-03T08:30:22.157Z,10
2018-12-03T08:31:22.435Z,10
2018-12-03T08:32:22.186Z,10
2018-12-03T08:33:21.941Z,15
2018-12-03T08:34:22.206Z,15
2018-12-03T08:35:21.977Z,10
2018-12-03T08:36:22.251Z,10
2018-12-03T08:37:22.023Z,10
2018-12-03T08:38:22.316Z,10
2018-12-03T08:39:22.319Z,15
2018-12-03T08:40:22.082Z,15
2018-12-03T08:41:22.358Z,15
2018-12-03T08:42:22.384Z,15
2018-12-03T08:43:22.400Z,10
2018-12-03T08:44:22.702Z,10
2018-12-03T08:45:22.200Z,10
2018-12-03T08:46:21.951Z,10
2018-12-03T08:47:22.739Z,10
2018-12-03T08:48:23.016Z,15
2018-12-03T08:49:23.678Z,15
2018-12-03T08:50:22.822Z,15
2018-12-03T08:51:22.576Z,15
2018-12-03T08:52:22.608Z,15
2018-12-03T08:53:22.372Z,15
2018-12-03T08:54:22.381Z,15
2018-12-03T08:55:22.402Z,15
2018-12-03T08:56:22.731Z,15
2018-12-03T08:57:22.175Z,15
2018-12-03T08:58:22.478Z,15
2018-12-03T08:59:22.996Z,20
2018-12-03T09:00:23.274Z,25
2018-12-03T09:01:22.267Z,15
2018-12-03T09:02:23.333Z,15
2018-12-03T09:03:23.094Z,15
2018-12-03T09:04:23.357Z,15
2018-12-03T09:05:22.617Z,10
2018-12-03T09:06:22.647Z,10
2018-12-03T09:07:22.961Z,10
2018-12-03T09:08:22.939Z,10
2018-12-03T09:09:23.238Z,10
2018-12-03T09:10:23.007Z,10
2018-12-03T09:11:22.486Z,10
2018-12-03T09:12:23.008Z,10
2018-12-03T09:13:23.045Z,10
2018-12-03T09:14:23.050Z,10
2018-12-03T09:15:22.557Z,10
2018-12-03T09:16:22.918Z,10
2018-12-03T09:17:22.877Z,10
2018-12-03T09:18:23.164Z,15
2018-12-03T09:19:23.166Z,15
2018-12-03T09:20:22.927Z,15
2018-12-03T09:21:23.496Z,15
2018-12-03T09:22:22.712Z,15
2018-12-03T09:23:23.523Z,15
2018-12-03T09:24:23.263Z,15
2018-12-03T09:25:23.303Z,15
2018-12-03T09:26:23.046Z,15
2018-12-03T09:27:22.828Z,15
2018-12-03T09:28:23.357Z,15
2018-12-03T09:29:23.893Z,15
2018-12-03T09:30:27.648Z,15
2018-12-03T09:31:23.422Z,15
2018-12-03T09:32:23.443Z,15
2018-12-03T09:33:23.472Z,15
2018-12-03T09:34:23.506Z,15
2018-12-03T09:35:23.512Z,20
2018-12-03T09:36:24.403Z,20
2018-12-03T09:37:23.291Z,20
2018-12-03T09:38:23.324Z,25
2018-12-03T09:39:23.328Z,25
2018-12-03T09:40:23.621Z,25
2018-12-03T09:41:23.380Z,25
2018-12-03T09:42:23.410Z,25
2018-12-03T09:43:23.660Z,25
2018-12-03T09:44:23.446Z,25
2018-12-03T09:45:23.201Z,20
2018-12-03T09:46:23.997Z,25
2018-12-03T09:47:24.025Z,25
2018-12-03T09:48:23.775Z,20
2018-12-03T09:49:23.283Z,20
2018-12-03T09:50:24.098Z,15
2018-12-03T09:51:23.855Z,15
2018-12-03T09:52:23.871Z,20
2018-12-03T09:53:23.640Z,15
2018-12-03T09:54:23.668Z,15
2018-12-03T09:55:23.926Z,15
2018-12-03T09:56:23.963Z,10
2018-12-03T09:57:24.242Z,10
2018-12-03T09:58:23.995Z,10
2018-12-03T09:59:23.758Z,10
2018-12-03T10:00:24.037Z,5
2018-12-03T10:01:23.565Z,5
2018-12-03T10:02:23.820Z,10
2018-12-03T10:03:24.372Z,15
2018-12-03T10:04:23.622Z,20
2018-12-03T10:05:24.144Z,35
2018-12-03T10:06:23.647Z,45
2018-12-03T10:07:23.934Z,60
2018-12-03T10:08:24.488Z,50
2018-12-03T10:09:24.484Z,50
2018-12-03T10:10:24.011Z,35
2018-12-03T10:11:24.295Z,35
2018-12-03T10:12:27.117Z,30
2018-12-03T10:13:24.306Z,30
2018-12-03T10:14:24.328Z,35
2018-12-03T10:15:24.103Z,35
2018-12-03T10:16:24.117Z,35
2018-12-03T10:17:24.661Z,35
2018-12-03T10:18:24.708Z,35
2018-12-03T10:19:24.185Z,35
2018-12-03T10:20:24.472Z,35
2018-12-03T10:21:24.231Z,35
2018-12-03T10:22:24.261Z,35
2018-12-03T10:23:24.531Z,40
2018-12-03T10:24:24.816Z,40
2018-12-03T10:25:24.320Z,40
2018-12-03T10:26:24.347Z,35
2018-12-03T10:27:24.086Z,30
2018-12-03T10:28:24.650Z,35
2018-12-03T10:29:24.935Z,35
2018-12-03T10:30:24.936Z,35
2018-12-03T10:31:24.185Z,35
2018-12-03T10:32:24.208Z,35
2018-12-03T10:33:25.013Z,30
2018-12-03T10:34:25.018Z,30
2018-12-03T10:35:25.048Z,30
2018-12-03T10:36:24.820Z,30
2018-12-03T10:37:24.571Z,35
2018-12-03T10:38:24.596Z,35
2018-12-03T10:39:25.139Z,35
2018-12-03T10:40:24.633Z,35
2018-12-03T10:41:24.642Z,35
2018-12-03T10:42:25.214Z,35
2018-12-03T10:43:24.716Z,35
2018-12-03T10:44:24.972Z,35
2018-12-03T10:45:30.918Z,35
2018-12-03T10:46:24.506Z,35
2018-12-03T10:47:24.793Z,35
2018-12-03T10:48:25.326Z,35
2018-12-03T10:49:25.094Z,30
2018-12-03T10:50:29.020Z,30
2018-12-03T10:51:25.136Z,25
2018-12-03T10:52:24.902Z,20
2018-12-03T10:53:25.411Z,10
2018-12-03T10:54:24.933Z,15
2018-12-03T10:55:25.227Z,10
2018-12-03T10:56:26.757Z,10
2018-12-03T10:57:24.986Z,10
2018-12-03T10:58:25.535Z,15
2018-12-03T10:59:24.783Z,20
2018-12-03T11:00:25.109Z,15
2018-12-03T11:01:25.862Z,15
2018-12-03T11:02:25.108Z,10
2018-12-03T11:03:25.387Z,10
2018-12-03T11:04:24.894Z,5
2018-12-03T11:05:25.194Z,10
2018-12-03T11:06:24.942Z,15
2018-12-03T11:07:25.219Z,10
2018-12-03T11:08:25.748Z,10
2018-12-03T11:09:25.514Z,15
2018-12-03T11:10:25.026Z,20
2018-12-03T11:11:25.565Z,25
2018-12-03T11:12:25.839Z,25
2018-12-03T11:13:25.334Z,25
2018-12-03T11:14:25.883Z,25
2018-12-03T11:15:25.658Z,20
2018-12-03T11:16:25.409Z,20
2018-12-03T11:17:25.953Z,20
2018-12-03T11:18:25.706Z,20
2018-12-03T11:19:25.738Z,25
2018-12-03T11:20:25.531Z,25
2018-12-03T11:21:26.428Z,20
2018-12-03T11:22:25.800Z,20
2018-12-03T11:23:25.812Z,20
2018-12-03T11:24:25.307Z,25
2018-12-03T11:25:26.117Z,25
2018-12-03T11:26:26.405Z,25
2018-12-03T11:27:25.897Z,25
2018-12-03T11:28:26.186Z,25
2018-12-03T11:29:26.204Z,30
2018-12-03T11:30:26.501Z,40
2018-12-03T11:31:26.236Z,35
2018-12-03T11:32:25.747Z,40
2018-12-03T11:33:26.303Z,40
2018-12-03T11:34:26.126Z,35
2018-12-03T11:35:26.350Z,35
2018-12-03T11:36:25.838Z,35
2018-12-03T11:37:26.127Z,35
2018-12-03T11:38:25.624Z,30
2018-12-03T11:39:26.418Z,25
2018-12-03T11:40:26.200Z,25
2018-12-03T11:41:25.681Z,25
2018-12-03T11:42:25.707Z,25
2018-12-03T11:43:26.270Z,30
2018-12-03T11:44:25.996Z,30
2018-12-03T11:45:26.034Z,30
2018-12-03T11:46:26.062Z,30
2018-12-03T11:47:26.349Z,30
2018-12-03T11:48:26.885Z,25
2018-12-03T11:49:26.106Z,25
2018-12-03T11:50:26.423Z,25
2018-12-03T11:51:26.709Z,25
2018-12-03T11:52:26.500Z,30
2018-12-03T11:53:27.599Z,30
2018-12-03T11:54:26.208Z,30
2018-12-03T11:55:26.769Z,25
2018-12-03T11:56:26.517Z,25
2018-12-03T11:57:26.543Z,25
2018-12-03T11:58:26.317Z,25
2018-12-03T11:59:26.847Z,25
2018-12-03T12:00:26.093Z,25
2018-12-03T12:01:26.626Z,30
2018-12-03T12:02:26.387Z,30
2018-12-03T12:03:26.938Z,30
2018-12-03T12:04:26.438Z,30
2018-12-03T12:05:26.474Z,25
2018-12-03T12:06:26.497Z,25
2018-12-03T12:07:26.522Z,25
2018-12-03T12:08:27.429Z,25
2018-12-03T12:09:30.179Z,30
2018-12-03T12:10:26.828Z,30
2018-12-03T12:11:27.097Z,30
2018-12-03T12:12:26.379Z,35
2018-12-03T12:13:26.890Z,35
2018-12-03T12:14:27.167Z,35
2018-12-03T12:15:26.675Z,35
2018-12-03T12:16:26.840Z,35
2018-12-03T12:17:26.978Z,35
2018-12-03T12:18:26.500Z,30
2018-12-03T12:19:27.020Z,35
2018-12-03T12:20:27.056Z,30
2018-12-03T12:21:26.542Z,30
2018-12-03T12:22:27.094Z,30
2018-12-03T12:23:26.830Z,30
2018-12-03T12:24:26.615Z,25
2018-12-03T12:25:27.671Z,25
2018-12-03T12:26:26.907Z,20
2018-12-03T12:27:26.938Z,20
2018-12-03T12:28:27.223Z,20
2018-12-03T12:29:27.481Z,20
2018-12-03T12:30:27.262Z,20
2018-12-03T12:31:27.017Z,15
2018-12-03T12:32:27.550Z,15
2018-12-03T12:33:27.156Z,15
2018-12-03T12:34:26.815Z,15
2018-12-03T12:35:27.368Z,15
2018-12-03T12:36:27.381Z,15
2018-12-03T12:37:27.910Z,15
2018-12-03T12:38:27.165Z,10
2018-12-03T12:39:27.457Z,10
2018-12-03T12:40:27.202Z,10
2018-12-03T12:41:27.482Z,10
2018-12-03T12:42:31.598Z,10
2018-12-03T12:43:27.796Z,10
2018-12-03T12:44:27.306Z,10
2018-12-03T12:45:27.062Z,20
2018-12-03T12:46:27.346Z,15
2018-12-03T12:47:27.624Z,15
2018-12-03T12:48:27.657Z,15
2018-12-03T12:49:27.667Z,10
2018-12-03T12:50:27.674Z,15
2018-12-03T12:51:27.953Z,15
2018-12-03T12:52:27.982Z,25
2018-12-03T12:53:27.227Z,20
2018-12-03T12:54:28.035Z,20
2018-12-03T12:55:27.263Z,15
2018-12-03T12:56:27.311Z,15
2018-12-03T12:57:27.559Z,20
2018-12-03T12:58:27.648Z,20
2018-12-03T12:59:27.627Z,15
2018-12-03T13:00:27.898Z,15
2018-12-03T13:01:27.678Z,15
2018-12-03T13:02:27.928Z,15
2018-12-03T13:03:27.439Z,15
2018-12-03T13:04:27.983Z,15
2018-12-03T13:05:33.095Z,10
2018-12-03T13:06:28.023Z,10
2018-12-03T13:07:27.787Z,10
2018-12-03T13:08:28.076Z,15
2018-12-03T13:09:28.091Z,15
2018-12-03T13:10:27.887Z,10
2018-12-03T13:11:27.861Z,15
2018-12-03T13:12:27.634Z,10
2018-12-03T13:13:27.924Z,5
2018-12-03T13:14:28.185Z,5
2018-12-03T13:15:27.959Z,5
2018-12-03T13:16:28.257Z,5
2018-12-03T13:17:28.018Z,5
2018-12-03T13:18:28.285Z,5
2018-12-03T13:19:27.793Z,5
2018-12-03T13:20:28.580Z,10
2018-12-03T13:21:28.608Z,15
2018-12-03T13:22:32.590Z,15
2018-12-03T13:23:28.681Z,15
2018-12-03T13:24:28.415Z,15
2018-12-03T13:25:27.896Z,15
2018-12-03T13:26:28.455Z,10
2018-12-03T13:27:28.726Z,10
2018-12-03T13:28:28.505Z,10
2018-12-03T13:29:29.022Z,15
2018-12-03T13:30:28.279Z,15
2018-12-03T13:31:28.025Z,15
2018-12-03T13:32:28.056Z,10
2018-12-03T13:33:28.611Z,10
2018-12-03T13:34:34.256Z,15
2018-12-03T13:35:29.260Z,15
2018-12-03T13:36:28.409Z,15
2018-12-03T13:37:28.159Z,20
2018-12-03T13:38:28.717Z,20
2018-12-03T13:39:32.355Z,20
2018-12-03T13:40:28.749Z,15
2018-12-03T13:41:28.533Z,15
2018-12-03T13:42:28.796Z,15
2018-12-03T13:43:28.563Z,15
2018-12-03T13:44:28.574Z,15
2018-12-03T13:45:29.121Z,15
2018-12-03T13:46:28.865Z,10
2018-12-03T13:47:28.637Z,10
2018-12-03T13:48:28.399Z,10
2018-12-03T13:49:28.426Z,10
2018-12-03T13:50:28.707Z,15
2018-12-03T13:51:28.973Z,15
2018-12-03T13:52:28.743Z,10
2018-12-03T13:53:28.800Z,10
2018-12-03T13:54:28.806Z,10
2018-12-03T13:55:28.545Z,10
2018-12-03T13:56:28.580Z,10
2018-12-03T13:57:28.849Z,10
2018-12-03T13:58:29.385Z,10
2018-12-03T13:59:29.151Z,10
2018-12-03T14:00:28.657Z,15
2018-12-03T14:01:29.516Z,15
2018-12-03T14:02:29.225Z,10
2018-12-03T14:03:29.483Z,10
2018-12-03T14:04:29.266Z,10
2018-12-03T14:05:29.018Z,5
2018-12-03T14:06:29.058Z,10
2018-12-03T14:07:29.064Z,10
2018-12-03T14:08:29.091Z,10
2018-12-03T14:09:29.634Z,15
2018-12-03T14:10:28.872Z,15
2018-12-03T14:11:29.154Z,15
2018-12-03T14:12:28.910Z,10
2018-12-03T14:13:29.187Z,10
2018-12-03T14:14:30.008Z,15
2018-12-03T14:15:29.509Z,15
2018-12-03T14:16:29.002Z,10
2018-12-03T14:17:29.531Z,10
2018-12-03T14:18:29.824Z,10
2018-12-03T14:19:29.592Z,10
2018-12-03T14:20:29.614Z,10
2018-12-03T14:21:29.629Z,10
2018-12-03T14:22:29.903Z,10
2018-12-03T14:23:29.926Z,10
2018-12-03T14:24:29.706Z,10
2018-12-03T14:25:29.707Z,10
2018-12-03T14:26:29.491Z,10
2018-12-03T14:27:29.488Z,5
2018-12-03T14:28:30.019Z,5
2018-12-03T14:29:30.075Z,5
2018-12-03T14:30:29.560Z,5
2018-12-03T14:31:30.106Z,5
2018-12-03T14:32:29.851Z,5
2018-12-03T14:33:29.905Z,0